Time;durP1;ratioP1;P1;durP2;ratioP2;P2;SDS_P1;SDS_P2;PMS_P1;PMS_P2;Temp;Humidity;BMP_temperature;BMP_pressure;BME280_temperature;BME280_humidity;BME280_pressure;Samples;Min_cycle;Max_cycle;Signal;HPM_P1;HPM_P2
2022/12/24 00:00:20;;;;;;;0.50;0.10;;;12.60;1.00;;;;;;4880373;29;20955;-75
2022/12/24 00:02:48;;;;;;;0.50;0.10;;;12.50;1.00;;;;;;4879147;29;20469;-76
2022/12/24 00:05:16;;;;;;;0.50;0.10;;;12.50;1.00;;;;;;4879181;29;20482;-76
2022/12/24 00:07:44;;;;;;;0.50;0.10;;;12.40;1.00;;;;;;4878940;29;20470;-77
2022/12/24 00:10:12;;;;;;;0.50;0.10;;;12.40;1.00;;;;;;4879346;29;20459;-75
2022/12/24 00:12:40;;;;;;;0.50;0.10;;;12.40;1.00;;;;;;4876158;29;20510;-75
2022/12/24 00:15:10;;;;;;;0.50;0.10;;;12.40;1.00;;;;;;4879076;29;20872;-76
2022/12/24 00:17:38;;;;;;;0.50;0.10;;;12.30;1.00;;;;;;4887199;29;20487;-75
2022/12/24 00:20:08;;;;;;;0.50;0.10;;;12.30;1.00;;;;;;4897551;29;20480;-75
2022/12/24 00:22:36;;;;;;;0.50;0.10;;;12.30;1.00;;;;;;4896164;29;20449;-75
2022/12/24 00:25:04;;;;;;;0.50;0.10;;;12.30;1.00;;;;;;4877925;29;20498;-74
2022/12/24 00:27:32;;;;;;;0.50;0.10;;;12.30;1.00;;;;;;4878180;29;20479;-76
2022/12/24 00:30:00;;;;;;;0.50;0.10;;;12.30;1.00;;;;;;4878159;29;20522;-76
2022/12/24 00:32:30;;;;;;;0.50;0.10;;;12.30;1.00;;;;;;4877509;29;20455;-76
2022/12/24 00:34:58;;;;;;;0.60;0.10;;;12.20;1.00;;;;;;4878461;29;21038;-75
2022/12/24 00:37:25;;;;;;;0.50;0.10;;;12.20;1.00;;;;;;4878017;29;20919;-76
2022/12/24 00:39:53;;;;;;;0.50;0.17;;;12.20;1.00;;;;;;4878323;29;20458;-76
2022/12/24 00:42:21;;;;;;;8.10;3.23;;;12.20;1.00;;;;;;4877668;29;20454;-76
2022/12/24 00:44:49;;;;;;;0.50;0.10;;;12.20;1.00;;;;;;4877601;29;20493;-76
2022/12/24 00:47:17;;;;;;;0.50;0.10;;;12.20;1.00;;;;;;4878380;29;20509;-76
2022/12/24 00:49:46;;;;;;;0.50;0.10;;;12.20;1.00;;;;;;4878290;29;20969;-76
2022/12/24 00:52:14;;;;;;;0.50;0.10;;;12.20;1.00;;;;;;4877216;29;20469;-76
2022/12/24 00:54:41;;;;;;;0.50;0.10;;;12.20;1.00;;;;;;4878337;29;20461;-76
2022/12/24 00:57:10;;;;;;;0.50;0.10;;;12.20;1.00;;;;;;4878069;29;20513;-76
2022/12/24 00:59:37;;;;;;;0.50;0.10;;;12.20;1.00;;;;;;4877612;29;20458;-76
2022/12/24 05:00:31;;;;;;;0.50;0.10;;;11.60;1.00;;;;;;5907497;23;21793;31
2022/12/24 05:02:59;;;;;;;0.50;0.20;;;11.50;1.00;;;;;;4875304;29;20474;-74
2022/12/24 05:05:27;;;;;;;0.73;0.67;;;11.40;1.00;;;;;;4878403;29;20855;-74
2022/12/24 05:07:55;;;;;;;3.07;0.97;;;11.40;1.00;;;;;;4878681;29;20457;-74
2022/12/24 05:10:22;;;;;;;0.60;0.10;;;11.40;1.00;;;;;;4878394;29;20965;-74
2022/12/24 05:12:50;;;;;;;7.50;0.93;;;11.40;1.00;;;;;;4877968;29;20489;-74
2022/12/24 05:15:18;;;;;;;3.70;1.50;;;11.40;1.00;;;;;;4879147;29;20838;-74
2022/12/24 05:17:47;;;;;;;0.50;0.20;;;11.40;1.00;;;;;;4878158;29;20964;-74
2022/12/24 05:20:15;;;;;;;4.30;1.27;;;11.30;1.00;;;;;;4877878;29;20473;-74
2022/12/24 05:28:20;;;;;;;0.60;0.20;;;11.40;1.00;;;;;;4878185;29;20821;-74
2022/12/24 05:30:48;;;;;;;2.03;0.73;;;11.30;1.00;;;;;;4877761;29;20854;-74
2022/12/24 05:33:17;;;;;;;0.50;0.10;;;11.30;1.00;;;;;;4877845;29;20458;-75
2022/12/24 05:35:44;;;;;;;0.60;0.30;;;11.30;1.00;;;;;;4878840;29;20946;-73
2022/12/24 05:38:12;;;;;;;0.60;0.47;;;11.30;1.00;;;;;;4879019;29;20938;-74
2022/12/24 05:40:40;;;;;;;0.77;0.77;;;11.30;1.00;;;;;;4878887;29;20458;-75
2022/12/24 05:43:08;;;;;;;0.50;0.10;;;11.30;1.00;;;;;;4878675;29;20467;-74
2022/12/24 05:45:36;;;;;;;0.50;0.10;;;11.30;1.00;;;;;;4878073;29;20487;-75
2022/12/24 05:48:05;;;;;;;0.57;0.23;;;11.20;1.00;;;;;;4880202;29;20482;-77
2022/12/24 05:50:35;;;;;;;2.20;0.53;;;11.20;1.00;;;;;;4881515;29;20450;-74
2022/12/24 05:53:02;;;;;;;1.60;1.00;;;11.20;1.00;;;;;;4881516;29;20458;-72
2022/12/24 05:55:30;;;;;;;0.50;0.20;;;11.20;1.00;;;;;;4882840;29;20446;-73
2022/12/24 05:57:58;;;;;;;0.50;0.20;;;11.20;1.00;;;;;;4881924;29;20453;-75
2022/12/24 06:00:26;;;;;;;0.50;0.10;;;11.20;1.00;;;;;;4881544;29;20463;-74
2022/12/24 06:02:54;;;;;;;1.37;0.77;;;11.10;1.00;;;;;;4887865;29;20473;-73
2022/12/24 06:05:23;;;;;;;6.00;1.70;;;11.10;1.00;;;;;;4885298;29;20501;-73
2022/12/24 06:07:52;;;;;;;0.50;0.10;;;11.10;1.00;;;;;;4900272;29;20457;-76
2022/12/24 06:10:20;;;;;;;0.50;0.10;;;11.10;1.00;;;;;;4899181;29;20482;-73
2022/12/24 06:12:48;;;;;;;0.50;0.20;;;11.10;1.00;;;;;;4899878;29;21087;-73
2022/12/24 06:15:16;;;;;;;0.50;0.10;;;11.10;1.00;;;;;;4900490;29;20453;-74
2022/12/24 06:17:50;;;;;;;1.23;0.40;;;11.20;1.00;;;;;;4888364;29;20458;-74
2022/12/24 06:20:18;;;;;;;0.50;0.10;;;11.20;1.00;;;;;;4881310;29;20465;-72
2022/12/24 06:22:46;;;;;;;2.00;0.50;;;11.30;1.00;;;;;;4880867;29;20474;-73
2022/12/24 06:25:15;;;;;;;0.50;0.10;;;11.30;1.00;;;;;;4881291;29;20458;-75
2022/12/24 06:27:43;;;;;;;0.50;0.20;;;11.30;1.00;;;;;;4880961;29;20478;-77
2022/12/24 06:30:11;;;;;;;0.50;0.10;;;11.30;1.00;;;;;;4881076;29;20800;-74
2022/12/24 06:32:39;;;;;;;1.80;1.70;;;11.30;1.00;;;;;;4880417;29;20476;-74
2022/12/24 06:35:07;;;;;;;0.50;0.10;;;11.30;1.00;;;;;;4881141;29;20502;-73
2022/12/24 06:37:35;;;;;;;0.50;0.10;;;11.30;1.00;;;;;;4880764;29;20450;-74
2022/12/24 06:40:03;;;;;;;0.60;0.20;;;11.30;1.00;;;;;;4880982;29;20461;-73
2022/12/24 06:42:32;;;;;;;0.50;0.10;;;11.30;1.00;;;;;;4880237;29;20972;-73
2022/12/24 06:45:00;;;;;;;0.50;0.10;;;11.30;1.00;;;;;;4880689;29;20463;-74
2022/12/24 06:47:35;;;;;;;0.50;0.10;;;11.30;1.00;;;;;;4880407;29;20501;-73
2022/12/24 06:50:03;;;;;;;1.13;0.40;;;11.30;1.00;;;;;;4882721;29;20458;-74
2022/12/24 06:52:31;;;;;;;0.50;0.20;;;11.30;1.00;;;;;;4880300;29;20474;-71
2022/12/24 06:54:58;;;;;;;0.50;0.10;;;11.40;1.00;;;;;;4881430;29;20455;-73
2022/12/24 06:57:26;;;;;;;0.50;0.10;;;11.30;1.00;;;;;;4880645;29;20870;-74
2022/12/24 06:59:55;;;;;;;0.50;0.10;;;11.40;1.00;;;;;;4879559;29;20514;-74
2022/12/24 07:02:23;;;;;;;0.50;0.10;;;11.40;1.00;;;;;;4879106;29;20494;-73
2022/12/24 07:04:51;;;;;;;0.70;0.70;;;11.40;1.00;;;;;;4879853;29;20446;-74
2022/12/24 07:07:19;;;;;;;0.50;0.10;;;11.40;1.00;;;;;;4881986;29;21019;-74
2022/12/24 07:09:47;;;;;;;0.50;0.30;;;11.30;1.00;;;;;;4880681;29;20510;-73
2022/12/24 07:12:15;;;;;;;0.80;0.30;;;11.30;1.00;;;;;;4879875;29;20474;-75
2022/12/24 07:14:43;;;;;;;7.10;0.97;;;11.40;1.00;;;;;;4880130;29;20458;-75
2022/12/24 07:17:12;;;;;;;0.50;0.10;;;11.40;1.00;;;;;;4877918;29;20987;-78
2022/12/24 07:19:40;;;;;;;0.50;0.10;;;11.40;1.00;;;;;;4875968;29;20458;-74
2022/12/24 07:22:07;;;;;;;0.60;0.20;;;11.40;1.00;;;;;;4883579;29;20476;-73
2022/12/24 07:24:42;;;;;;;5.73;0.77;;;11.40;1.00;;;;;;4880126;29;20439;-74
2022/12/24 07:27:10;;;;;;;0.50;0.20;;;11.40;1.00;;;;;;4879807;29;20491;-75
2022/12/24 07:29:39;;;;;;;0.50;0.10;;;11.40;1.00;;;;;;4879632;29;20965;-73
2022/12/24 07:32:07;;;;;;;1.70;1.60;;;11.40;1.00;;;;;;4879434;29;21021;-73
2022/12/24 07:34:38;;;;;;;0.60;0.30;;;11.40;1.00;;;;;;4881514;29;20458;-80
2022/12/24 07:37:06;;;;;;;3.03;1.20;;;11.40;1.00;;;;;;4880378;29;20467;-74
2022/12/24 07:39:34;;;;;;;11.73;1.40;;;11.40;1.00;;;;;;4878875;29;20458;-73
2022/12/24 07:42:04;;;;;;;0.50;0.10;;;11.40;1.00;;;;;;4878869;29;20474;-74
2022/12/24 07:44:32;;;;;;;0.50;0.10;;;11.40;1.00;;;;;;4870042;29;20452;-74
2022/12/24 07:47:00;;;;;;;1.90;0.20;;;11.40;1.00;;;;;;4866762;29;20483;-74
2022/12/24 07:49:28;;;;;;;0.60;0.20;;;;;;;;;;4878616;29;20989;-77
2022/12/24 07:51:57;;;;;;;4.60;0.97;;;11.40;1.00;;;;;;4877979;29;20475;-75
2022/12/24 07:54:25;;;;;;;0.50;0.10;;;11.40;1.00;;;;;;4877762;29;20862;-73
2022/12/24 07:56:54;;;;;;;3.50;1.23;;;11.30;1.00;;;;;;4878420;29;20454;-73
2022/12/24 07:59:22;;;;;;;0.50;0.10;;;11.40;1.00;;;;;;4875012;29;20566;-76
2022/12/24 08:01:50;;;;;;;0.60;0.20;;;11.40;1.00;;;;;;4869302;29;20505;-77
2022/12/24 08:04:18;;;;;;;0.60;0.30;;;11.40;1.00;;;;;;4877881;29;20466;-78
2022/12/24 08:06:46;;;;;;;0.50;0.10;;;11.40;1.00;;;;;;4885440;29;20486;-74
2022/12/24 08:09:15;;;;;;;2.67;1.33;;;11.40;1.00;;;;;;4878545;29;20933;-74
2022/12/24 08:11:43;;;;;;;0.50;0.20;;;;;;;;;;4878702;29;20982;-73
2022/12/24 08:14:19;;;;;;;0.50;0.10;;;11.40;1.00;;;;;;4878248;29;20446;-73
2022/12/24 08:19:28;;;;;;;1.23;1.13;;;11.60;1.00;;;;;;5243036;23;20509;-79
2022/12/24 08:21:56;;;;;;;0.50;0.10;;;11.60;1.00;;;;;;4918524;29;20505;-81
2022/12/24 08:24:26;;;;;;;0.50;0.10;;;11.60;1.00;;;;;;4924561;29;20472;-79
2022/12/24 08:26:54;;;;;;;0.50;0.10;;;11.60;1.00;;;;;;4923501;29;20502;-79
2022/12/24 08:29:22;;;;;;;0.90;0.80;;;11.60;1.00;;;;;;4929169;29;20496;-80
2022/12/24 08:31:50;;;;;;;0.80;0.60;;;11.60;1.00;;;;;;4933829;29;20498;-81
2022/12/24 08:34:18;;;;;;;0.50;0.10;;;11.60;1.00;;;;;;4918262;29;20439;-81
2022/12/24 08:36:46;;;;;;;1.30;0.33;;;11.60;1.00;;;;;;4902423;29;20447;-79
2022/12/24 08:39:14;;;;;;;0.50;0.10;;;11.60;1.00;;;;;;4896203;29;20474;-79
2022/12/24 08:41:43;;;;;;;2.10;1.80;;;11.70;1.00;;;;;;4900467;29;20455;-80
2022/12/24 08:44:11;;;;;;;0.50;0.10;;;11.70;1.00;;;;;;4902857;29;20474;-80
2022/12/24 08:46:38;;;;;;;0.50;0.10;;;11.60;1.00;;;;;;4915410;29;20449;-79
2022/12/24 08:49:06;;;;;;;0.50;0.10;;;11.60;1.00;;;;;;4936603;29;20461;-80
2022/12/24 08:51:34;;;;;;;2.03;1.93;;;11.60;1.00;;;;;;4940421;29;20456;-79
2022/12/24 08:54:02;;;;;;;1.60;1.47;;;11.60;1.00;;;;;;4939113;29;20465;-79
2022/12/24 08:56:30;;;;;;;0.77;0.77;;;11.50;1.00;;;;;;4939954;29;20445;-79
2022/12/24 08:58:59;;;;;;;1.70;1.33;;;11.50;1.00;;;;;;4939931;29;20496;-80
2022/12/24 09:01:27;;;;;;;0.70;0.30;;;11.40;1.00;;;;;;4938421;29;20507;-80
2022/12/24 09:03:55;;;;;;;0.50;0.10;;;11.40;1.00;;;;;;4937151;29;20453;-77
2022/12/24 09:06:23;;;;;;;1.40;1.00;;;11.40;1.00;;;;;;4934626;29;20517;-80
2022/12/24 09:08:58;;;;;;;0.50;0.20;;;11.40;1.00;;;;;;4941133;29;20488;-80
2022/12/24 09:11:26;;;;;;;0.50;0.10;;;11.30;1.00;;;;;;4941587;29;20415;-80
2022/12/24 09:13:55;;;;;;;0.50;0.10;;;11.30;1.00;;;;;;4940869;29;20483;-80
2022/12/24 09:16:24;;;;;;;0.50;0.20;;;11.30;1.00;;;;;;4940204;29;20461;-80
2022/12/24 09:18:52;;;;;;;0.50;0.10;;;11.20;1.00;;;;;;4939701;29;20479;-81
2022/12/24 09:21:20;;;;;;;0.50;0.10;;;11.20;1.00;;;;;;4936644;29;20457;-80
2022/12/24 09:23:48;;;;;;;0.50;0.10;;;11.20;1.00;;;;;;4913798;29;20448;-79
2022/12/24 09:26:18;;;;;;;0.50;0.10;;;11.20;1.00;;;;;;4926773;29;20462;-80
2022/12/24 09:28:47;;;;;;;0.73;0.47;;;11.20;1.00;;;;;;4943558;29;20495;-80
2022/12/24 09:31:16;;;;;;;0.60;0.50;;;11.20;1.00;;;;;;4943883;29;20436;-81
2022/12/24 09:33:46;;;;;;;0.50;0.10;;;11.20;1.00;;;;;;4944282;29;20523;-80
2022/12/24 09:36:14;;;;;;;0.50;0.10;;;11.30;1.00;;;;;;4943344;29;20467;-80
2022/12/24 09:38:43;;;;;;;0.50;0.10;;;11.30;1.00;;;;;;4943141;29;20472;-80
2022/12/24 09:41:12;;;;;;;0.50;0.10;;;11.30;1.00;;;;;;4943288;29;20485;-80
2022/12/24 09:43:46;;;;;;;0.50;0.10;;;11.30;1.00;;;;;;4940777;29;20463;-79
2022/12/24 09:46:22;;;;;;;0.50;0.10;;;11.20;1.00;;;;;;4943394;29;20425;-79
2022/12/24 09:48:56;;;;;;;11.30;10.30;;;11.10;1.00;;;;;;4941416;29;20487;-79
2022/12/24 09:51:29;;;;;;;0.60;0.10;;;11.10;1.00;;;;;;4937571;29;20441;-79
2022/12/24 09:54:03;;;;;;;0.50;0.20;;;11.00;1.00;;;;;;4941699;29;20424;-78
2022/12/24 09:56:36;;;;;;;0.53;0.30;;;11.00;1.00;;;;;;4940170;29;20491;-78
2022/12/24 09:59:06;;;;;;;0.50;0.10;;;11.20;1.00;;;;;;4936737;29;20472;-79
2022/12/24 10:01:34;;;;;;;0.60;0.40;;;11.20;1.00;;;;;;4934798;29;20447;-80
2022/12/24 10:04:07;;;;;;;2.10;0.40;;;11.30;1.00;;;;;;4934479;29;20524;-80
2022/12/24 10:06:44;;;;;;;13.03;11.77;;;11.30;1.00;;;;;;4934687;29;20433;-79
2022/12/24 10:09:21;;;;;;;10.40;0.77;;;11.30;1.00;;;;;;4935072;29;20490;-80
2022/12/24 10:11:54;;;;;;;0.50;0.10;;;11.30;1.00;;;;;;4932782;29;20460;-79
2022/12/24 10:14:37;;;;;;;1.23;0.93;;;11.30;1.00;;;;;;4939636;29;20436;-79
2022/12/24 10:17:18;;;;;;;0.53;0.20;;;11.20;1.00;;;;;;4934306;29;20452;-79
2022/12/24 10:19:52;;;;;;;0.60;0.30;;;11.30;1.00;;;;;;4937190;29;20537;-80
2022/12/24 10:22:27;;;;;;;0.70;0.17;;;11.30;1.00;;;;;;4940112;29;20460;-79
2022/12/24 10:25:03;;;;;;;20.70;3.80;;;11.30;1.00;;;;;;4937072;29;20496;-80
2022/12/24 10:27:35;;;;;;;0.50;0.20;;;11.40;1.00;;;;;;4936877;29;20433;-81
2022/12/24 10:30:13;;;;;;;0.50;0.10;;;11.50;1.00;;;;;;4936735;29;20475;-79
2022/12/24 10:32:49;;;;;;;0.50;0.20;;;11.50;1.00;;;;;;4936709;29;20421;-81
2022/12/24 10:35:23;;;;;;;6.20;0.47;;;11.60;1.00;;;;;;4942163;29;20425;-80
2022/12/24 10:37:52;;;;;;;0.50;0.10;;;11.70;1.00;;;;;;4941016;29;20447;-81
2022/12/24 10:40:35;;;;;;;0.50;0.10;;;11.70;1.00;;;;;;4941026;29;20467;-80
2022/12/24 10:43:12;;;;;;;0.50;0.10;;;11.70;1.00;;;;;;4939862;29;20461;-81
2022/12/24 10:45:46;;;;;;;2.00;1.80;;;11.60;1.00;;;;;;4935500;29;20460;-80
2022/12/24 10:48:21;;;;;;;0.50;0.10;;;11.80;1.00;;;;;;4938710;29;20480;-80
2022/12/24 10:50:58;;;;;;;0.50;0.10;;;11.80;1.00;;;;;;4940698;29;20496;-80
2022/12/24 10:53:37;;;;;;;0.50;0.10;;;12.30;1.00;;;;;;4929738;29;20437;-80
2022/12/24 10:56:07;;;;;;;0.50;0.10;;;11.90;1.00;;;;;;4925501;29;20486;-79
2022/12/24 10:58:36;;;;;;;0.80;0.40;;;12.00;1.00;;;;;;4921623;29;20481;-79
2022/12/24 11:01:05;;;;;;;0.50;0.10;;;12.00;1.00;;;;;;4923058;29;20807;-80
2022/12/24 11:03:34;;;;;;;0.90;0.53;;;12.00;1.00;;;;;;4923068;29;20486;-79
2022/12/24 11:06:09;;;;;;;0.50;0.10;;;12.00;1.00;;;;;;4923288;29;20453;-80
2022/12/24 11:08:40;;;;;;;0.50;0.10;;;12.00;1.00;;;;;;4922776;29;20483;-80
2022/12/24 11:11:09;;;;;;;8.80;1.40;;;12.00;1.00;;;;;;4923422;29;20449;-80
2022/12/24 11:13:40;;;;;;;13.00;2.33;;;12.00;1.00;;;;;;4923405;29;20567;-80
2022/12/24 11:16:15;;;;;;;9.20;8.50;;;11.90;1.00;;;;;;4923420;29;20440;-81
2022/12/24 11:18:47;;;;;;;0.50;0.10;;;12.00;1.00;;;;;;4922673;29;20513;-81
2022/12/24 11:21:32;;;;;;;0.60;0.20;;;12.10;1.00;;;;;;4923158;29;20460;-81
2022/12/24 11:24:05;;;;;;;0.50;0.10;;;12.10;1.00;;;;;;4923553;29;20493;-81
2022/12/24 11:26:33;;;;;;;0.50;0.10;;;12.10;1.00;;;;;;4911965;29;20439;-81
2022/12/24 11:29:12;;;;;;;0.50;0.20;;;12.20;1.00;;;;;;4903931;29;20474;-81
2022/12/24 11:31:40;;;;;;;0.50;0.10;;;12.20;1.00;;;;;;4899937;29;20454;-80
2022/12/24 11:34:22;;;;;;;0.50;0.20;;;12.30;1.00;;;;;;4900207;29;20459;-80
2022/12/24 11:36:53;;;;;;;0.50;0.10;;;12.40;1.00;;;;;;4903788;29;20471;-79
2022/12/24 11:39:23;;;;;;;1.27;1.17;;;12.50;1.00;;;;;;4903151;29;20512;-80
2022/12/24 11:41:53;;;;;;;3.50;1.50;;;12.50;1.00;;;;;;4904150;29;20446;-80
2022/12/24 11:44:25;;;;;;;0.50;0.10;;;12.50;1.00;;;;;;4903999;29;20458;-81
2022/12/24 11:46:56;;;;;;;7.73;1.17;;;12.60;1.00;;;;;;4903384;29;20517;-80
2022/12/24 11:49:26;;;;;;;0.60;0.30;;;12.60;1.00;;;;;;4900602;29;20523;-81
2022/12/24 11:52:21;;;;;;;0.60;0.10;;;12.60;1.00;;;;;;4901025;29;20455;-81
2022/12/24 11:55:01;;;;;;;0.50;0.20;;;12.70;1.00;;;;;;4899340;29;20471;-81
2022/12/24 11:57:38;;;;;;;0.50;0.10;;;12.60;1.00;;;;;;4902999;29;20441;-81
2022/12/24 12:00:10;;;;;;;0.50;0.10;;;12.60;1.00;;;;;;4903328;29;20477;-81
2022/12/24 12:02:42;;;;;;;0.77;0.77;;;12.60;1.00;;;;;;4904793;29;20447;-80
2022/12/24 12:05:16;;;;;;;0.50;0.10;;;12.60;1.00;;;;;;4903828;29;20419;-80
2022/12/24 12:07:48;;;;;;;0.50;0.10;;;12.60;1.00;;;;;;4901177;29;20518;-81
2022/12/24 12:10:20;;;;;;;0.80;0.40;;;12.60;1.00;;;;;;4897156;29;20542;-80
2022/12/24 12:12:59;;;;;;;5.70;1.37;;;12.60;1.00;;;;;;4896635;29;20459;-80
2022/12/24 12:15:33;;;;;;;0.50;0.10;;;12.60;1.00;;;;;;4895062;29;20533;-80
2022/12/24 12:18:08;;;;;;;0.50;0.20;;;12.60;1.00;;;;;;4895565;29;20485;-79
2022/12/24 12:20:41;;;;;;;0.80;0.47;;;12.60;1.00;;;;;;4893754;29;20461;-79
2022/12/24 12:23:16;;;;;;;0.63;0.30;;;12.70;1.00;;;;;;4894578;29;20523;-81
2022/12/24 12:25:54;;;;;;;0.80;0.73;;;12.80;1.00;;;;;;4899814;29;20530;-79
2022/12/24 12:28:28;;;;;;;0.60;0.10;;;12.90;1.00;;;;;;4896973;29;20470;-79
2022/12/24 12:31:03;;;;;;;1.00;0.70;;;12.90;1.00;;;;;;4894345;29;20496;-80
2022/12/24 12:33:40;;;;;;;0.50;0.10;;;12.90;1.00;;;;;;4895120;29;20443;-80
2022/12/24 12:36:10;;;;;;;0.53;0.10;;;13.00;1.00;;;;;;4893709;29;20458;-79
2022/12/24 12:38:40;;;;;;;0.50;0.10;;;13.10;1.00;;;;;;4896041;29;20454;-80
2022/12/24 12:41:24;;;;;;;0.50;0.10;;;13.10;1.00;;;;;;4902744;29;20474;-81
2022/12/24 12:44:34;;;;;;;1.27;0.50;;;13.10;1.00;;;;;;4902271;29;20447;-81
2022/12/24 12:47:21;;;;;;;0.67;0.47;;;13.00;1.00;;;;;;4900245;29;20498;-80
2022/12/24 12:50:00;;;;;;;0.70;0.20;;;12.70;1.00;;;;;;4897858;29;20585;-79
2022/12/24 12:52:44;;;;;;;0.60;0.30;;;12.60;1.00;;;;;;4893537;29;20502;-79
2022/12/24 12:55:28;;;;;;;0.60;0.20;;;12.60;1.00;;;;;;4893373;29;20466;-81
2022/12/24 12:58:03;;;;;;;0.97;0.77;;;12.70;1.00;;;;;;4893484;29;20800;-80
2022/12/24 13:00:36;;;;;;;1.13;0.20;;;12.60;1.00;;;;;;4895284;29;20449;-79
2022/12/24 13:03:28;;;;;;;0.70;0.40;;;12.60;1.00;;;;;;4890560;29;20831;-80
2022/12/24 13:06:27;;;;;;;0.60;0.20;;;12.60;1.00;;;;;;4893152;29;20721;-79
2022/12/24 13:09:33;;;;;;;0.57;0.30;;;12.70;1.00;;;;;;4893535;29;20479;-80
2022/12/24 13:12:26;;;;;;;0.70;0.63;;;12.80;1.00;;;;;;4895617;29;20434;-81
2022/12/24 13:15:06;;;;;;;1.80;1.70;;;12.80;1.00;;;;;;4897083;29;20487;-81
2022/12/24 13:18:12;;;;;;;0.50;0.10;;;12.80;1.00;;;;;;4895824;29;20474;-80
2022/12/24 13:20:42;;;;;;;1.27;0.63;;;12.80;1.00;;;;;;4873660;29;20510;-79
2022/12/24 13:26:12;;;;;;;0.50;0.10;;;12.70;1.00;;;;;;4899711;29;20461;-80
2022/12/24 13:28:42;;;;;;;0.60;0.40;;;12.80;1.00;;;;;;4900595;29;20482;-78
2022/12/24 13:31:26;;;;;;;16.93;0.50;;;12.80;1.00;;;;;;4894607;29;20490;-80
2022/12/24 13:33:57;;;;;;;0.60;0.20;;;12.80;1.00;;;;;;4893750;29;20447;-80
2022/12/24 13:36:25;;;;;;;0.50;0.10;;;12.70;1.00;;;;;;4894187;29;20447;-81
2022/12/24 13:38:53;;;;;;;1.43;1.33;;;12.70;1.00;;;;;;4892544;29;20473;-81
2022/12/24 13:41:50;;;;;;;0.60;0.30;;;12.70;1.00;;;;;;4891888;29;20468;-80
2022/12/24 13:44:31;;;;;;;0.60;0.20;;;12.80;1.00;;;;;;4897591;29;20470;-80
2022/12/24 13:47:17;;;;;;;0.50;0.20;;;12.80;1.00;;;;;;4895351;29;20527;-80
2022/12/24 13:49:49;;;;;;;0.50;0.10;;;12.80;1.00;;;;;;4893737;29;20545;-80
2022/12/24 13:52:32;;;;;;;0.70;0.30;;;12.80;1.00;;;;;;4893753;29;20928;-80
2022/12/24 13:55:15;;;;;;;0.53;0.20;;;12.70;1.00;;;;;;4893958;29;20486;-80
2022/12/24 13:57:47;;;;;;;0.53;0.27;;;12.80;1.00;;;;;;4894109;29;20462;-80
2022/12/24 14:00:31;;;;;;;0.50;0.10;;;12.60;1.00;;;;;;4893321;29;20545;-79
2022/12/24 14:03:03;;;;;;;0.50;0.10;;;12.60;1.00;;;;;;4892788;29;20463;-80
2022/12/24 14:05:35;;;;;;;0.50;0.20;;;12.60;1.00;;;;;;4891613;29;20487;-79
2022/12/24 14:08:08;;;;;;;0.50;0.10;;;12.60;1.00;;;;;;4891651;29;20445;-79
2022/12/24 14:10:39;;;;;;;0.50;0.10;;;12.60;1.00;;;;;;4893842;29;20490;-81
2022/12/24 14:13:45;;;;;;;0.50;0.10;;;12.60;1.00;;;;;;4894180;29;20959;-80
2022/12/24 14:16:17;;;;;;;0.50;0.10;;;12.60;1.00;;;;;;4894665;29;20458;-78
2022/12/24 14:18:50;;;;;;;0.60;0.30;;;12.70;1.00;;;;;;4897115;29;20462;-80
2022/12/24 14:21:25;;;;;;;0.50;0.10;;;12.70;1.00;;;;;;4896178;29;20462;-81
2022/12/24 14:23:57;;;;;;;0.50;0.10;;;12.70;1.00;;;;;;4897550;29;20482;-80
2022/12/24 14:26:31;;;;;;;0.50;0.10;;;12.70;1.00;;;;;;4906926;29;20442;-80
2022/12/24 14:29:03;;;;;;;0.50;0.10;;;12.70;1.00;;;;;;4914723;29;21071;-80
2022/12/24 14:31:32;;;;;;;0.50;0.10;;;12.60;1.00;;;;;;4926163;23;20871;-72
2022/12/24 14:34:07;;;;;;;1.43;0.97;;;12.70;1.00;;;;;;4880503;29;20454;-74
2022/12/24 14:36:36;;;;;;;1.00;0.67;;;12.60;1.00;;;;;;4880844;29;20465;-73
2022/12/24 14:39:07;;;;;;;1.40;1.30;;;12.50;1.00;;;;;;4881025;29;20944;-74
2022/12/24 14:41:44;;;;;;;0.50;0.10;;;12.50;1.00;;;;;;4880877;29;20470;-74
2022/12/24 14:44:21;;;;;;;0.50;0.10;;;12.40;1.00;;;;;;4881317;29;20894;-74
2022/12/24 14:46:56;;;;;;;1.63;1.53;;;12.40;1.00;;;;;;4880793;29;20447;-75
2022/12/24 14:49:38;;;;;;;0.50;0.10;;;12.30;1.00;;;;;;4881149;29;20460;-75
2022/12/24 14:52:17;;;;;;;0.50;0.10;;;12.30;1.00;;;;;;4881595;29;20494;-73
2022/12/24 14:55:30;;;;;;;3.70;1.60;;;12.40;1.00;;;;;;4881003;29;20446;-74
2022/12/24 14:58:18;;;;;;;0.50;0.20;;;12.40;1.00;;;;;;4882900;29;20546;-73
2022/12/24 15:00:47;;;;;;;0.50;0.10;;;12.30;1.00;;;;;;4880808;29;20917;-75
2022/12/24 15:03:18;;;;;;;0.50;0.10;;;12.30;1.00;;;;;;4881164;29;20498;-73
2022/12/24 15:05:50;;;;;;;0.50;0.20;;;12.30;1.00;;;;;;4880790;29;20570;-74
2022/12/24 15:08:20;;;;;;;0.50;0.10;;;12.30;1.00;;;;;;4880931;29;20450;-74
2022/12/24 15:10:53;;;;;;;0.50;0.20;;;12.30;1.00;;;;;;4880905;29;20577;-74
2022/12/24 15:13:29;;;;;;;0.50;0.10;;;12.20;1.00;;;;;;4880525;29;21080;-74
2022/12/24 15:16:05;;;;;;;0.50;0.20;;;12.20;1.00;;;;;;4881060;29;20450;-74
2022/12/24 15:18:38;;;;;;;2.57;2.37;;;12.20;1.00;;;;;;4882012;29;20458;-75
2022/12/24 15:21:13;;;;;;;0.50;0.10;;;12.20;1.00;;;;;;4879789;29;20447;-75
2022/12/24 15:23:46;;;;;;;0.50;0.10;;;12.20;1.00;;;;;;4880531;29;20458;-72
2022/12/24 15:26:19;;;;;;;0.50;0.20;;;12.10;1.00;;;;;;4880507;29;20944;-74
2022/12/24 15:28:48;;;;;;;4.30;1.17;;;12.10;1.00;;;;;;4880892;29;20458;-77
2022/12/24 15:31:18;;;;;;;0.70;0.40;;;12.00;1.00;;;;;;4880929;29;20486;-74
2022/12/24 15:33:48;;;;;;;0.60;0.20;;;;;;;;;;4880530;29;20566;-74
2022/12/24 15:36:25;;;;;;;1.33;1.23;;;11.90;1.00;;;;;;4880282;29;20458;-74
2022/12/24 15:38:56;;;;;;;9.80;9.00;;;11.80;1.00;;;;;;4880335;29;20450;-74
2022/12/24 15:41:27;;;;;;;21.63;1.53;;;11.70;1.00;;;;;;4879931;29;20527;-74
2022/12/24 15:44:01;;;;;;;1.10;0.97;;;11.60;1.00;;;;;;4880074;29;20813;-74
2022/12/24 15:46:30;;;;;;;0.50;0.10;;;11.60;1.00;;;;;;4880126;29;20459;-74
2022/12/24 15:49:02;;;;;;;1.83;0.67;;;11.60;1.00;;;;;;4880573;29;20450;-75
2022/12/24 15:51:33;;;;;;;0.50;0.20;;;11.60;1.00;;;;;;4879836;29;21020;-75
2022/12/24 15:54:12;;;;;;;0.50;0.10;;;11.70;1.00;;;;;;4880790;29;20850;-74
2022/12/24 15:56:43;;;;;;;0.50;0.20;;;11.60;1.00;;;;;;4880835;29;20461;-74
2022/12/24 15:59:30;;;;;;;0.50;0.10;;;11.80;1.00;;;;;;4879605;29;20995;-75
2022/12/24 16:02:40;;;;;;;0.97;0.50;;;11.80;1.00;;;;;;4879621;29;20463;-75
2022/12/24 16:05:37;;;;;;;0.50;0.20;;;11.80;1.00;;;;;;4835839;29;20832;-74
2022/12/24 16:08:24;;;;;;;0.63;0.57;;;11.70;1.00;;;;;;4846256;29;20975;-74
2022/12/24 16:11:05;;;;;;;0.50;0.10;;;11.70;1.00;;;;;;4878908;29;20870;-73
2022/12/24 16:13:36;;;;;;;0.90;0.53;;;11.80;1.00;;;;;;4879352;29;20455;-73
2022/12/24 16:16:07;;;;;;;0.60;0.37;;;11.70;1.00;;;;;;4880025;29;20483;-73
2022/12/24 16:18:38;;;;;;;2.20;1.47;;;11.70;1.00;;;;;;4878773;29;20451;-72
2022/12/24 16:21:08;;;;;;;0.50;0.10;;;11.70;1.00;;;;;;4879259;29;20987;-75
2022/12/24 16:23:44;;;;;;;0.50;0.17;;;11.70;1.00;;;;;;4879550;29;20450;-75
2022/12/24 16:26:12;;;;;;;0.70;0.30;;;11.50;1.00;;;;;;4878917;29;20450;-75
2022/12/24 16:28:40;;;;;;;0.50;0.10;;;11.50;1.00;;;;;;4879099;29;20450;-74
2022/12/24 16:31:16;;;;;;;7.33;3.40;;;11.50;1.00;;;;;;4878286;29;20490;-74
2022/12/24 16:33:44;;;;;;;0.50;0.10;;;11.50;1.00;;;;;;4879030;29;20454;-73
2022/12/24 16:36:14;;;;;;;0.77;0.67;;;11.40;1.00;;;;;;4878981;29;20457;-73
2022/12/24 16:41:27;;;;;;;3.60;0.53;;;11.40;1.00;;;;;;4878622;29;20462;-74
2022/12/24 16:43:54;;;;;;;1.20;0.67;;;11.40;1.00;;;;;;4878695;29;20451;-73
2022/12/24 16:46:22;;;;;;;3.27;0.57;;;11.30;1.00;;;;;;4879193;29;20990;-73
2022/12/24 16:48:50;;;;;;;1.63;1.53;;;;;;;;;;4878496;29;20455;-75
2022/12/24 16:51:19;;;;;;;0.50;0.10;;;11.30;1.00;;;;;;4878520;29;20494;-74
2022/12/24 16:53:47;;;;;;;0.50;0.10;;;11.30;1.00;;;;;;4878662;29;20451;-74
2022/12/24 16:56:15;;;;;;;0.70;0.53;;;11.30;1.00;;;;;;4878585;29;20813;-74
2022/12/24 16:58:43;;;;;;;3.37;0.43;;;11.30;1.00;;;;;;4878556;29;20553;-75
2022/12/24 17:01:11;;;;;;;0.60;0.20;;;11.20;1.00;;;;;;4878818;29;20470;-75
2022/12/24 17:03:39;;;;;;;0.50;0.10;;;11.20;1.00;;;;;;4878494;29;20447;-75
2022/12/24 17:06:08;;;;;;;0.53;0.23;;;11.20;1.00;;;;;;4878443;29;20443;-73
2022/12/24 17:08:37;;;;;;;0.60;0.10;;;11.20;1.00;;;;;;4878299;29;20879;-74
2022/12/24 17:11:05;;;;;;;4.00;1.07;;;11.20;1.00;;;;;;4878866;29;20579;-75
2022/12/24 17:13:33;;;;;;;0.50;0.20;;;11.20;1.00;;;;;;4878790;29;20446;-74
2022/12/24 17:16:01;;;;;;;0.73;0.57;;;11.10;1.00;;;;;;4878378;29;21059;-74
2022/12/24 17:18:29;;;;;;;5.13;1.90;;;11.20;1.00;;;;;;4878542;29;20489;-74
2022/12/24 17:20:59;;;;;;;0.50;0.10;;;11.20;1.00;;;;;;4878114;29;20502;-74
2022/12/24 17:23:27;;;;;;;0.60;0.30;;;11.20;1.00;;;;;;4878404;29;20451;-73
2022/12/24 17:25:56;;;;;;;0.50;0.10;;;11.20;1.00;;;;;;4872511;29;20560;-75
2022/12/24 17:28:24;;;;;;;0.60;0.40;;;11.30;1.00;;;;;;4859914;29;20874;-74
2022/12/24 17:30:52;;;;;;;1.63;0.83;;;11.30;1.00;;;;;;4860379;29;20451;-73
2022/12/24 17:33:20;;;;;;;0.50;0.10;;;11.30;1.00;;;;;;4859924;29;20859;-73
2022/12/24 17:35:48;;;;;;;4.23;2.47;;;11.30;1.00;;;;;;4859849;29;20459;-74